Time;durP1;ratioP1;P1;durP2;ratioP2;P2;SDS_P1;SDS_P2;PMS_P1;PMS_P2;Temp;Humidity;BMP_temperature;BMP_pressure;BME280_temperature;BME280_humidity;BME280_pressure;Samples;Min_cycle;Max_cycle;Signal;HPM_P1;HPM_P2
2023/09/02 00:00:04;;;;;;;4.27;3.30;;;13.00;99.90;;;;;;2070742;28;20225;-67
2023/09/02 00:01:05;;;;;;;4.80;3.33;;;13.00;99.90;;;;;;2063529;28;20767;-67
2023/09/02 00:02:06;;;;;;;3.63;2.87;;;13.00;99.90;;;;;;2055452;28;20328;-67
2023/09/02 00:03:07;;;;;;;3.73;3.00;;;13.00;99.90;;;;;;2063547;28;20902;-67
2023/09/02 00:04:08;;;;;;;5.13;3.27;;;13.00;99.90;;;;;;2055321;28;20186;-67
2023/09/02 00:05:09;;;;;;;5.65;3.60;;;13.00;99.90;;;;;;2054847;28;20191;-67
2023/09/02 00:06:09;;;;;;;5.00;3.50;;;13.00;99.90;;;;;;2063313;28;20201;-67
2023/09/02 00:07:11;;;;;;;4.50;3.70;;;13.00;99.90;;;;;;2063446;28;20269;-67
2023/09/02 00:08:11;;;;;;;5.53;2.97;;;13.00;99.90;;;;;;2062869;28;20201;-67
2023/09/02 00:09:13;;;;;;;3.70;2.80;;;13.00;99.90;;;;;;2066564;28;20232;-67
2023/09/02 00:10:13;;;;;;;4.93;3.22;;;13.00;99.90;;;;;;2063200;28;20640;-67
2023/09/02 00:11:14;;;;;;;5.40;4.00;;;13.10;99.90;;;;;;2063470;28;20206;-67
2023/09/02 00:12:15;;;;;;;5.03;3.50;;;13.10;99.90;;;;;;2058721;28;20191;-67
2023/09/02 00:13:15;;;;;;;6.03;4.17;;;13.10;99.90;;;;;;2066380;28;20190;-67
2023/09/02 00:14:16;;;;;;;4.57;3.60;;;13.00;99.90;;;;;;2066133;28;20293;-67
2023/09/02 00:15:17;;;;;;;4.27;3.60;;;13.00;99.90;;;;;;2065168;28;20190;-67
2023/09/02 00:16:17;;;;;;;4.87;3.33;;;13.00;99.90;;;;;;2073564;28;20236;-67
2023/09/02 00:17:18;;;;;;;3.63;3.20;;;13.00;99.90;;;;;;2072932;28;20267;-67
2023/09/02 00:18:19;;;;;;;4.87;3.40;;;13.10;99.90;;;;;;2060793;28;20252;-67
2023/09/02 00:19:21;;;;;;;3.33;3.03;;;13.00;99.90;;;;;;2063676;28;20239;-67
2023/09/02 00:20:22;;;;;;;5.28;2.75;;;13.00;99.90;;;;;;2064416;28;20230;-67
2023/09/02 00:21:24;;;;;;;3.57;3.07;;;13.00;99.90;;;;;;2063915;28;20998;-67
2023/09/02 00:22:25;;;;;;;4.28;2.97;;;12.90;99.90;;;;;;2064238;28;20325;-67
2023/09/02 00:23:25;;;;;;;3.10;2.80;;;12.90;99.90;;;;;;2057754;28;20234;-67
2023/09/02 00:24:26;;;;;;;4.37;2.97;;;12.80;99.90;;;;;;2061363;28;20231;-67
2023/09/02 00:25:27;;;;;;;3.83;3.00;;;12.80;99.90;;;;;;2051999;28;20222;-67
2023/09/02 00:26:29;;;;;;;5.13;2.70;;;12.80;99.90;;;;;;2064084;28;20241;-67
2023/09/02 00:27:30;;;;;;;3.10;2.40;;;12.80;99.90;;;;;;2062983;28;20234;-67
2023/09/02 00:28:31;;;;;;;3.80;2.90;;;12.80;99.90;;;;;;2062127;28;20735;-67
2023/09/02 00:29:31;;;;;;;4.43;2.70;;;12.90;99.90;;;;;;2063205;28;20233;-67
2023/09/02 00:30:32;;;;;;;3.27;2.80;;;12.90;99.90;;;;;;2063507;28;20226;-67
2023/09/02 00:31:33;;;;;;;3.97;3.10;;;12.90;99.90;;;;;;2071413;28;20217;-67
2023/09/02 00:32:34;;;;;;;3.20;2.90;;;12.90;99.90;;;;;;2061284;28;20230;-67
2023/09/02 00:33:35;;;;;;;3.97;3.57;;;12.90;99.90;;;;;;2063441;28;20739;-67
2023/09/02 00:34:35;;;;;;;3.70;2.93;;;12.90;99.90;;;;;;2064127;28;20226;-67
2023/09/02 00:35:36;;;;;;;3.40;2.63;;;12.90;99.90;;;;;;2063237;28;20228;-67
2023/09/02 00:36:37;;;;;;;4.83;2.53;;;12.90;99.90;;;;;;2055052;28;20250;-67
2023/09/02 00:37:38;;;;;;;4.38;3.00;;;12.80;99.90;;;;;;2063354;28;20312;-67
2023/09/02 00:38:39;;;;;;;4.43;2.63;;;12.90;99.90;;;;;;2063338;28;20229;-67
2023/09/02 00:39:39;;;;;;;3.70;3.17;;;12.90;99.90;;;;;;2055365;28;20223;-67
2023/09/02 00:40:47;;;;;;;2.90;2.60;;;12.90;99.90;;;;;;2051329;28;20223;-67
2023/09/02 00:41:54;;;;;;;3.30;2.40;;;12.90;99.90;;;;;;2058072;28;20227;-67
2023/09/02 00:42:55;;;;;;;3.83;2.78;;;12.90;99.90;;;;;;2057851;28;20321;-67
2023/09/02 00:43:56;;;;;;;4.22;2.80;;;12.90;99.90;;;;;;2056532;28;20281;-67
2023/09/02 00:44:57;;;;;;;3.90;2.58;;;12.90;99.90;;;;;;2051176;28;20727;-66
2023/09/02 00:45:58;;;;;;;3.47;2.60;;;12.80;99.90;;;;;;2046932;28;20227;-67
2023/09/02 00:47:01;;;;;;;4.82;2.75;;;12.70;99.90;;;;;;2055458;28;20243;-67
2023/09/02 00:48:02;;;;;;;3.50;2.60;;;12.60;99.90;;;;;;2061998;28;20275;-68
2023/09/02 00:49:03;;;;;;;3.50;2.75;;;12.60;99.90;;;;;;2055335;28;20683;-67
2023/09/02 00:50:05;;;;;;;5.07;3.10;;;12.60;99.90;;;;;;2055264;28;20240;-67
2023/09/02 00:51:05;;;;;;;3.72;3.30;;;12.60;99.90;;;;;;2063529;28;20738;-67
2023/09/02 00:52:06;;;;;;;3.23;2.77;;;12.60;99.90;;;;;;2059379;28;20201;-67
2023/09/02 00:53:07;;;;;;;5.67;3.00;;;12.60;99.90;;;;;;2061460;28;20634;-67
2023/09/02 00:54:08;;;;;;;4.50;3.00;;;12.60;99.90;;;;;;2063214;28;20197;-66
2023/09/02 00:55:09;;;;;;;6.00;3.07;;;12.60;99.90;;;;;;2063953;28;20190;-67
2023/09/02 00:56:09;;;;;;;3.50;2.80;;;12.70;99.90;;;;;;2063249;28;20309;-66
2023/09/02 00:57:10;;;;;;;3.70;2.80;;;12.70;99.90;;;;;;2056006;28;20245;-67
2023/09/02 00:58:11;;;;;;;5.10;3.20;;;12.60;99.90;;;;;;2055169;28;20296;-67
2023/09/02 00:59:12;;;;;;;4.53;2.92;;;12.50;99.90;;;;;;2055409;28;20193;-68
2023/09/02 01:00:14;;;;;;;4.93;3.00;;;12.50;99.90;;;;;;2063272;28;20193;-67
2023/09/02 01:01:15;;;;;;;3.63;2.97;;;12.50;99.90;;;;;;2062814;28;20214;-67
2023/09/02 01:02:16;;;;;;;4.60;3.30;;;12.50;99.90;;;;;;2070798;28;20276;-66
2023/09/02 01:03:17;;;;;;;4.20;3.33;;;12.40;99.90;;;;;;2062261;28;20202;-67
2023/09/02 01:04:21;;;;;;;4.47;2.93;;;12.50;99.90;;;;;;2063126;28;20294;-67
2023/09/02 01:05:22;;;;;;;4.05;3.05;;;12.60;99.90;;;;;;2068271;28;20216;-67
2023/09/02 01:06:23;;;;;;;5.10;3.05;;;12.60;99.90;;;;;;2062979;28;20245;-67
2023/09/02 01:07:26;;;;;;;3.00;2.70;;;12.60;99.90;;;;;;2062455;28;20317;-66
2023/09/02 01:08:27;;;;;;;2.92;2.63;;;12.60;99.90;;;;;;2070366;28;20230;-67
2023/09/02 01:09:29;;;;;;;4.82;3.00;;;12.60;99.90;;;;;;2064204;28;20292;-67
2023/09/02 01:10:36;;;;;;;3.47;3.03;;;12.60;99.90;;;;;;2064977;28;20658;-67
2023/09/02 01:11:37;;;;;;;3.17;2.85;;;12.60;99.90;;;;;;2054655;28;20306;-67
2023/09/02 01:12:38;;;;;;;3.80;2.60;;;12.60;99.90;;;;;;2054822;28;20225;-67
2023/09/02 01:13:39;;;;;;;3.47;2.77;;;12.60;99.90;;;;;;2068026;28;20225;-67
2023/09/02 01:14:39;;;;;;;3.63;2.87;;;12.70;99.90;;;;;;2071010;28;20231;-67
2023/09/02 01:15:40;;;;;;;4.30;2.87;;;12.70;99.90;;;;;;2062755;28;20693;-67
2023/09/02 01:16:41;;;;;;;4.67;2.80;;;12.70;99.90;;;;;;2063225;28;20225;-67
2023/09/02 01:17:42;;;;;;;3.20;2.90;;;12.70;99.90;;;;;;2062382;28;20345;-65
2023/09/02 01:18:43;;;;;;;2.97;2.47;;;12.60;99.90;;;;;;2054244;28;20219;-66
2023/09/02 01:19:44;;;;;;;3.83;2.83;;;12.70;99.90;;;;;;2046080;28;20468;-66
2023/09/02 01:21:22;;;;;;;2.83;2.50;;;12.60;99.90;;;;;;2050041;28;20231;-66
2023/09/02 01:22:47;;;;;;;3.38;2.63;;;12.60;99.90;;;;;;2055397;28;20733;-66
2023/09/02 01:24:14;;;;;;;3.53;2.50;;;12.60;99.90;;;;;;2063324;28;20265;-66
2023/09/02 01:25:42;;;;;;;3.85;2.70;;;12.60;99.90;;;;;;2056906;28;20237;-67
2023/09/02 01:27:10;;;;;;;4.28;3.08;;;12.60;99.90;;;;;;2059596;28;20298;-65
2023/09/02 01:28:17;;;;;;;5.15;3.22;;;12.60;99.90;;;;;;2061218;28;20233;-66
2023/09/02 01:29:21;;;;;;;4.72;3.20;;;12.50;99.90;;;;;;2066525;28;20244;-66
2023/09/02 01:30:27;;;;;;;5.07;3.55;;;12.50;99.90;;;;;;2065992;28;20238;-66
2023/09/02 01:31:31;;;;;;;4.50;3.38;;;12.50;99.90;;;;;;2050470;28;20319;-66
2023/09/02 01:32:42;;;;;;;4.10;2.70;;;12.40;99.90;;;;;;2054237;28;20234;-65
2023/09/02 01:33:43;;;;;;;3.33;2.38;;;12.50;99.90;;;;;;2058517;28;20225;-65
2023/09/02 01:34:45;;;;;;;3.05;2.75;;;12.50;99.90;;;;;;2062727;28;20218;-66
2023/09/02 01:35:50;;;;;;;5.47;3.60;;;12.50;99.90;;;;;;2071236;28;20228;-65
2023/09/02 01:36:52;;;;;;;4.43;3.00;;;12.50;99.90;;;;;;2062860;28;20233;-66
2023/09/02 01:37:56;;;;;;;4.65;3.17;;;12.50;99.90;;;;;;2055493;28;20265;-66
2023/09/02 01:38:58;;;;;;;4.63;2.53;;;12.50;99.90;;;;;;2058006;28;20350;-66
2023/09/02 01:40:03;;;;;;;3.22;2.90;;;12.50;99.90;;;;;;2060616;28;20218;-66
2023/09/02 01:41:06;;;;;;;3.97;3.13;;;12.50;99.90;;;;;;2067249;28;20304;-66
2023/09/02 01:42:10;;;;;;;3.78;2.78;;;12.60;99.90;;;;;;2054165;28;20198;-66
2023/09/02 01:43:11;;;;;;;4.63;2.70;;;12.60;99.90;;;;;;2054671;28;20233;-66
2023/09/02 01:44:13;;;;;;;3.58;2.83;;;12.60;99.90;;;;;;2054524;28;20246;-66
2023/09/02 01:45:14;;;;;;;3.67;2.60;;;12.60;99.90;;;;;;2054045;28;20190;-65
2023/09/02 01:46:18;;;;;;;3.75;2.70;;;12.60;99.90;;;;;;2062428;28;20198;-66
2023/09/02 01:47:19;;;;;;;4.03;2.58;;;12.60;99.90;;;;;;2062462;28;20194;-66
2023/09/02 01:48:21;;;;;;;6.18;2.55;;;12.60;99.90;;;;;;2058253;28;20186;-66
2023/09/02 01:49:23;;;;;;;4.13;3.25;;;12.60;99.90;;;;;;2062306;28;20294;-66
2023/09/02 01:50:28;;;;;;;3.50;2.80;;;12.60;99.90;;;;;;2062182;28;20234;-66
2023/09/02 01:51:30;;;;;;;4.60;2.88;;;12.60;99.90;;;;;;2062535;28;20254;-66
2023/09/02 01:52:31;;;;;;;3.42;2.65;;;12.60;99.90;;;;;;2062158;28;20253;-66
2023/09/02 01:53:32;;;;;;;3.03;2.60;;;12.60;99.90;;;;;;2045490;28;20227;-66
2023/09/02 01:54:33;;;;;;;3.75;2.50;;;12.50;99.90;;;;;;2045072;28;20223;-66
2023/09/02 01:55:34;;;;;;;3.10;2.28;;;12.50;99.90;;;;;;2054290;28;20235;-65
2023/09/02 01:56:36;;;;;;;3.57;2.53;;;12.40;99.90;;;;;;2053945;28;20778;-66
2023/09/02 01:57:38;;;;;;;3.08;2.55;;;12.50;99.90;;;;;;2052800;28;20303;-66
2023/09/02 01:58:39;;;;;;;3.13;2.40;;;12.40;99.90;;;;;;2054260;28;20291;-66
2023/09/02 01:59:39;;;;;;;2.90;2.30;;;12.40;99.90;;;;;;2050179;28;20226;-66
2023/09/02 02:00:40;;;;;;;4.27;2.50;;;12.40;99.90;;;;;;2052873;28;20671;-66
2023/09/02 02:01:41;;;;;;;3.77;2.50;;;12.50;99.90;;;;;;2062060;28;20280;-66
2023/09/02 02:02:42;;;;;;;3.97;2.33;;;12.40;99.90;;;;;;2061823;28;20233;-66
2023/09/02 02:04:15;;;;;;;4.23;2.70;;;12.40;99.90;;;;;;2053472;28;20219;-65
2023/09/02 02:05:18;;;;;;;3.17;2.70;;;12.40;99.90;;;;;;2050167;28;20230;-66
2023/09/02 02:06:21;;;;;;;3.30;2.45;;;12.40;99.90;;;;;;2063169;28;20225;-66
2023/09/02 02:07:28;;;;;;;2.72;2.45;;;12.40;99.90;;;;;;2061984;28;20315;-66
2023/09/02 02:08:44;;;;;;;3.92;2.80;;;12.40;99.90;;;;;;2051081;28;20596;-67
2023/09/02 02:09:53;;;;;;;3.28;2.38;;;12.40;99.90;;;;;;2061426;28;20220;-65
2023/09/02 02:10:58;;;;;;;3.33;2.28;;;12.40;99.90;;;;;;2062277;28;20620;-65
2023/09/02 02:12:01;;;;;;;4.65;2.60;;;12.40;99.90;;;;;;2052502;28;20714;-65
2023/09/02 02:13:02;;;;;;;3.70;2.42;;;12.30;99.90;;;;;;2062068;28;20241;-65
2023/09/02 02:14:05;;;;;;;4.40;2.25;;;12.30;99.90;;;;;;2060724;28;20222;-66
2023/09/02 02:15:10;;;;;;;3.38;2.50;;;12.30;99.90;;;;;;2048865;28;20196;-66
2023/09/02 02:16:11;;;;;;;3.47;2.47;;;12.30;99.90;;;;;;2055000;28;20245;-67
2023/09/02 02:17:13;;;;;;;3.77;2.80;;;12.30;99.90;;;;;;2059131;28;20226;-66
2023/09/02 02:18:13;;;;;;;3.95;2.50;;;12.30;99.90;;;;;;2062439;28;20226;-66
2023/09/02 02:19:14;;;;;;;3.30;2.70;;;12.30;99.90;;;;;;2062264;28;20535;-66
2023/09/02 02:20:15;;;;;;;4.23;2.80;;;12.30;99.90;;;;;;2053436;28;21006;-66
2023/09/02 02:21:17;;;;;;;3.65;2.67;;;12.30;99.90;;;;;;2045001;28;20298;-66
2023/09/02 02:22:18;;;;;;;4.13;2.83;;;12.30;99.90;;;;;;2062382;28;20194;-66
2023/09/02 02:23:18;;;;;;;2.90;2.60;;;12.30;99.90;;;;;;2065078;28;20220;-66
2023/09/02 02:24:19;;;;;;;4.70;3.07;;;12.30;99.90;;;;;;2061508;28;20218;-66
2023/09/02 02:25:20;;;;;;;3.33;3.03;;;12.30;99.90;;;;;;2053097;28;20869;-66
2023/09/02 02:26:21;;;;;;;3.23;2.90;;;12.30;99.90;;;;;;2050720;28;20226;-66
2023/09/02 02:27:22;;;;;;;3.00;2.53;;;12.30;99.90;;;;;;2045939;28;20684;-66
2023/09/02 02:28:22;;;;;;;4.25;2.60;;;12.30;99.90;;;;;;2054936;28;20230;-66
2023/09/02 02:29:23;;;;;;;5.17;2.70;;;12.30;99.90;;;;;;2061883;28;20253;-66
2023/09/02 02:30:24;;;;;;;3.40;2.50;;;12.30;99.90;;;;;;2064331;28;20308;-66
2023/09/02 02:31:25;;;;;;;3.27;2.97;;;12.30;99.90;;;;;;2056104;28;20219;-66
2023/09/02 02:32:25;;;;;;;3.77;2.90;;;12.30;99.90;;;;;;2062239;28;20233;-67
2023/09/02 02:33:26;;;;;;;3.57;2.87;;;12.30;99.90;;;;;;2064316;28;20226;-66
2023/09/02 02:34:27;;;;;;;2.87;2.20;;;12.20;99.90;;;;;;2072345;28;20229;-66
2023/09/02 02:35:32;;;;;;;3.13;2.27;;;12.20;99.90;;;;;;2071448;28;20308;-66
2023/09/02 02:36:32;;;;;;;4.05;2.67;;;12.20;99.90;;;;;;2058798;28;20647;-66
2023/09/02 02:37:33;;;;;;;3.50;2.70;;;12.20;99.90;;;;;;2061465;28;20238;-66
2023/09/02 02:38:34;;;;;;;3.27;2.47;;;12.20;99.90;;;;;;2061666;28;20277;-66
2023/09/02 02:39:34;;;;;;;7.73;2.60;;;12.20;99.90;;;;;;2051941;28;20226;-66
2023/09/02 02:40:35;;;;;;;4.67;2.77;;;12.20;99.90;;;;;;2061699;28;20226;-66
2023/09/02 02:41:37;;;;;;;3.25;2.72;;;12.20;99.90;;;;;;2061691;28;20246;-66
2023/09/02 02:42:38;;;;;;;2.97;2.67;;;12.20;99.90;;;;;;2061654;28;20593;-66
2023/09/02 02:43:39;;;;;;;3.83;2.40;;;12.20;99.90;;;;;;2062939;28;20229;-66
2023/09/02 02:44:39;;;;;;;4.77;2.67;;;12.20;99.90;;;;;;2062112;28;20304;-66
2023/09/02 02:45:41;;;;;;;4.00;2.53;;;12.20;99.90;;;;;;2061471;28;20258;-66
2023/09/02 02:46:42;;;;;;;4.53;2.50;;;12.20;99.90;;;;;;2065162;28;20229;-67
2023/09/02 02:47:43;;;;;;;4.00;2.65;;;12.20;99.90;;;;;;2061495;28;20245;-66
2023/09/02 02:48:44;;;;;;;3.73;2.60;;;12.20;99.90;;;;;;2058029;28;20214;-66
2023/09/02 02:49:44;;;;;;;3.60;2.60;;;12.20;99.90;;;;;;2066178;28;20209;-66
2023/09/02 02:50:46;;;;;;;3.33;2.50;;;12.20;99.90;;;;;;2065502;28;20601;-66
2023/09/02 02:51:46;;;;;;;3.58;2.88;;;12.20;99.90;;;;;;2066801;28;20217;-66
2023/09/02 02:52:48;;;;;;;3.77;2.60;;;12.10;99.90;;;;;;2076577;28;20220;-66
2023/09/02 02:53:49;;;;;;;3.90;2.70;;;12.10;99.90;;;;;;2065039;28;20710;-66
2023/09/02 02:54:50;;;;;;;3.50;2.60;;;12.20;99.90;;;;;;2062719;28;20217;-66
2023/09/02 02:55:52;;;;;;;2.95;2.65;;;12.20;99.90;;;;;;2065351;28;20694;-66
2023/09/02 02:56:52;;;;;;;3.83;2.60;;;12.20;99.90;;;;;;2065298;28;20226;-66
2023/09/02 02:57:53;;;;;;;2.90;2.60;;;12.20;99.90;;;;;;2065189;28;20308;-66
2023/09/02 02:58:55;;;;;;;3.60;2.40;;;12.20;99.90;;;;;;2064363;28;20702;-66
2023/09/02 02:59:55;;;;;;;4.78;2.90;;;12.20;99.90;;;;;;2056180;28;20242;-66
2023/09/02 03:01:13;;;;;;;3.00;2.70;;;12.20;99.90;;;;;;2063653;28;20702;-66
2023/09/02 03:02:15;;;;;;;2.58;2.28;;;12.20;99.90;;;;;;2060504;28;20218;-66
2023/09/02 03:03:16;;;;;;;4.85;2.45;;;12.20;99.90;;;;;;2062056;28;20250;-66
2023/09/02 03:04:17;;;;;;;4.90;2.83;;;12.20;99.90;;;;;;2063854;28;20217;-66
2023/09/02 03:05:20;;;;;;;2.75;2.30;;;12.20;99.90;;;;;;2063605;28;20994;-67
2023/09/02 03:06:21;;;;;;;3.97;2.80;;;12.20;99.90;;;;;;2061749;28;20194;-66
2023/09/02 03:07:22;;;;;;;2.70;2.30;;;12.10;99.90;;;;;;2061818;28;20244;-66
2023/09/02 03:08:23;;;;;;;2.43;2.20;;;12.10;99.90;;;;;;2069514;28;20300;-66
2023/09/02 03:09:23;;;;;;;4.07;2.60;;;12.10;99.90;;;;;;2053963;28;20874;-66
2023/09/02 03:10:27;;;;;;;3.13;2.60;;;12.10;99.90;;;;;;2050748;28;20235;-66
2023/09/02 03:11:28;;;;;;;3.67;2.40;;;12.10;99.90;;;;;;2061432;28;20313;-66
2023/09/02 03:12:28;;;;;;;3.60;2.50;;;12.10;99.90;;;;;;2054218;28;20218;-66
2023/09/02 03:13:30;;;;;;;3.70;2.33;;;12.10;99.90;;;;;;2061989;28;20222;-66
2023/09/02 03:14:31;;;;;;;3.15;2.17;;;12.10;99.90;;;;;;2061978;28;20232;-66
2023/09/02 03:15:32;;;;;;;3.13;2.60;;;12.10;99.90;;;;;;2049844;28;20230;-66
2023/09/02 03:16:33;;;;;;;3.35;2.60;;;12.10;99.90;;;;;;2047382;28;20235;-66
2023/09/02 03:17:33;;;;;;;3.90;2.50;;;12.10;99.90;;;;;;2059459;28;20650;-66
2023/09/02 03:18:34;;;;;;;4.57;3.10;;;12.10;99.90;;;;;;2063590;28;20253;-67
2023/09/02 03:19:35;;;;;;;3.30;2.60;;;12.10;99.90;;;;;;2061616;28;20246;-67
2023/09/02 03:20:36;;;;;;;3.75;2.50;;;12.10;99.90;;;;;;2061708;28;20222;-66
2023/09/02 03:21:37;;;;;;;3.40;2.57;;;12.10;99.90;;;;;;2070305;28;20660;-66
2023/09/02 03:22:41;;;;;;;4.80;2.60;;;12.10;99.90;;;;;;2062257;28;20230;-66
2023/09/02 03:23:42;;;;;;;3.72;2.53;;;12.00;99.90;;;;;;2061366;28;20297;-66
2023/09/02 03:24:43;;;;;;;3.57;2.67;;;12.10;99.90;;;;;;2052646;28;20226;-66
2023/09/02 03:25:43;;;;;;;2.53;2.00;;;12.10;99.90;;;;;;2049528;28;20277;-66
2023/09/02 03:26:44;;;;;;;4.27;2.60;;;12.10;99.90;;;;;;2053172;28;20286;-66
2023/09/02 03:27:45;;;;;;;2.80;2.50;;;12.00;99.90;;;;;;2053461;28;20226;-66
2023/09/02 03:28:46;;;;;;;4.22;2.72;;;12.00;99.90;;;;;;2060821;28;20249;-66
2023/09/02 03:29:50;;;;;;;2.83;2.40;;;12.00;99.90;;;;;;2059326;28;20217;-65
2023/09/02 03:30:51;;;;;;;4.70;2.45;;;12.10;99.90;;;;;;2054112;28;20314;-66
2023/09/02 03:31:52;;;;;;;4.33;2.20;;;12.10;99.90;;;;;;2060450;28;20721;-66
2023/09/02 03:32:53;;;;;;;5.03;2.40;;;12.00;99.90;;;;;;2061943;28;20607;-66
2023/09/02 03:33:54;;;;;;;3.28;2.75;;;12.00;99.90;;;;;;2061805;28;20214;-67
2023/09/02 03:34:55;;;;;;;2.88;2.30;;;12.00;99.90;;;;;;2058245;28;20230;-67
2023/09/02 03:35:56;;;;;;;3.50;2.42;;;12.10;99.90;;;;;;2052623;28;20261;-67
2023/09/02 03:36:57;;;;;;;3.03;2.50;;;12.10;99.90;;;;;;2059784;28;20233;-67
2023/09/02 03:37:57;;;;;;;2.53;2.23;;;12.10;99.90;;;;;;2061883;28;20309;-66
2023/09/02 03:38:58;;;;;;;3.37;2.27;;;12.10;99.90;;;;;;2061224;28;20222;-66
2023/09/02 03:39:59;;;;;;;4.43;2.90;;;12.10;99.90;;;;;;2061259;28;20226;-66
2023/09/02 03:41:00;;;;;;;3.50;2.40;;;12.10;99.90;;;;;;2062063;28;20745;-66
2023/09/02 03:42:01;;;;;;;2.63;2.30;;;12.10;99.90;;;;;;2061974;28;20241;-66
2023/09/02 03:43:01;;;;;;;3.75;2.50;;;12.00;99.90;;;;;;2061504;28;20254;-66
2023/09/02 03:44:03;;;;;;;3.17;2.67;;;12.00;99.90;;;;;;2060110;28;20210;-68
2023/09/02 03:45:04;;;;;;;3.80;2.58;;;12.00;99.90;;;;;;2061261;28;20190;-66
2023/09/02 03:46:06;;;;;;;5.50;2.47;;;12.00;99.90;;;;;;2053527;28;20195;-67
2023/09/02 03:47:06;;;;;;;3.22;2.20;;;12.00;99.90;;;;;;2064785;28;20323;-66
2023/09/02 03:48:07;;;;;;;4.07;2.97;;;12.00;99.90;;;;;;2066517;28;20187;-67
2023/09/02 03:49:08;;;;;;;4.47;3.20;;;12.00;99.90;;;;;;2066080;28;20186;-66
2023/09/02 03:50:09;;;;;;;2.63;2.42;;;12.00;99.90;;;;;;2065672;28;20869;-66
2023/09/02 03:51:16;;;;;;;3.22;2.60;;;12.00;99.90;;;;;;2061372;28;20245;-66
2023/09/02 03:52:16;;;;;;;4.80;2.50;;;11.90;99.90;;;;;;2058556;28;20186;-66
2023/09/02 03:53:17;;;;;;;4.60;2.37;;;12.00;99.90;;;;;;2061566;28;20269;-66
2023/09/02 03:54:18;;;;;;;2.70;2.37;;;11.90;99.90;;;;;;2060900;28;20214;-66
2023/09/02 03:55:19;;;;;;;2.23;2.03;;;11.90;99.90;;;;;;2061050;28;20258;-66
2023/09/02 03:56:20;;;;;;;2.80;2.50;;;11.90;99.90;;;;;;2060140;28;20190;-66
2023/09/02 03:57:20;;;;;;;3.47;2.40;;;11.80;99.90;;;;;;2051512;28;20695;-66
2023/09/02 03:58:21;;;;;;;4.17;2.37;;;11.90;99.90;;;;;;2051542;28;20196;-66
2023/09/02 03:59:22;;;;;;;3.87;2.77;;;11.80;99.90;;;;;;2061259;28;20925;-66
2023/09/02 04:00:24;;;;;;;4.57;2.85;;;11.80;99.90;;;;;;2061369;28;21007;-66
2023/09/02 04:01:25;;;;;;;3.55;2.63;;;11.80;99.90;;;;;;2058754;28;20308;-66
2023/09/02 04:02:25;;;;;;;3.20;2.43;;;11.90;99.90;;;;;;2057570;28;20230;-66
2023/09/02 04:03:28;;;;;;;3.40;2.43;;;11.90;99.90;;;;;;2059239;28;20233;-66
2023/09/02 04:04:29;;;;;;;3.35;2.72;;;11.90;99.90;;;;;;2051953;28;20226;-66
2023/09/02 04:05:29;;;;;;;4.27;3.00;;;11.90;99.90;;;;;;2060119;28;20233;-66
2023/09/02 04:06:30;;;;;;;3.47;2.80;;;11.90;99.90;;;;;;2063843;28;20261;-66
2023/09/02 04:07:31;;;;;;;3.30;2.63;;;11.90;99.90;;;;;;2063355;28;20226;-66
2023/09/02 04:08:34;;;;;;;3.47;2.60;;;11.90;99.90;;;;;;2063718;28;20574;-66
2023/09/02 04:09:34;;;;;;;5.53;2.30;;;11.80;99.90;;;;;;2062975;28;20234;-67
2023/09/02 04:10:35;;;;;;;2.60;2.40;;;11.80;99.90;;;;;;2063477;28;20602;-66
2023/09/02 04:11:36;;;;;;;3.23;2.30;;;11.80;99.90;;;;;;2063618;28;20222;-66
2023/09/02 04:12:36;;;;;;;3.53;2.70;;;11.80;99.90;;;;;;2064377;28;20224;-66
2023/09/02 04:13:37;;;;;;;3.97;2.60;;;11.80;99.90;;;;;;2063825;28;20222;-66
2023/09/02 04:14:38;;;;;;;3.47;2.70;;;11.80;99.90;;;;;;2064041;28;20222;-66
2023/09/02 04:15:38;;;;;;;4.07;3.00;;;11.90;99.90;;;;;;2067067;28;20237;-66
2023/09/02 04:16:39;;;;;;;3.67;2.70;;;11.90;99.90;;;;;;2067479;28;20217;-66
2023/09/02 04:17:40;;;;;;;3.73;2.80;;;11.90;99.90;;;;;;2067007;28;20631;-66
2023/09/02 04:18:40;;;;;;;3.30;2.50;;;11.90;99.90;;;;;;2062574;28;20225;-66
2023/09/02 04:19:41;;;;;;;3.60;2.40;;;11.80;99.90;;;;;;2063150;28;20292;-66
2023/09/02 04:20:42;;;;;;;5.30;3.00;;;11.80;99.90;;;;;;2071278;28;20756;-66
2023/09/02 04:21:44;;;;;;;2.43;2.23;;;11.80;99.90;;;;;;2063670;28;20313;-66
2023/09/02 04:22:44;;;;;;;3.08;2.33;;;11.80;99.90;;;;;;2063190;28;20242;-66
2023/09/02 04:23:46;;;;;;;5.13;2.60;;;11.80;99.90;;;;;;2063683;28;20225;-66
2023/09/02 04:24:47;;;;;;;5.30;3.13;;;11.80;99.90;;;;;;2063572;28;20306;-67
2023/09/02 04:25:53;;;;;;;3.07;2.67;;;11.80;99.90;;;;;;2063187;28;20222;-67
2023/09/02 04:26:55;;;;;;;3.30;2.58;;;11.90;99.90;;;;;;2063609;28;20226;-66
2023/09/02 04:27:56;;;;;;;3.17;2.38;;;11.90;99.90;;;;;;2063064;28;20654;-66
2023/09/02 04:28:57;;;;;;;2.60;2.20;;;11.90;99.90;;;;;;2063073;28;20276;-66
2023/09/02 04:29:57;;;;;;;3.33;2.03;;;11.90;99.90;;;;;;2062804;28;20218;-66
2023/09/02 04:30:59;;;;;;;2.73;2.30;;;11.80;99.90;;;;;;2063588;28;20230;-66
2023/09/02 04:32:00;;;;;;;3.67;2.10;;;11.90;99.90;;;;;;2064020;28;20302;-66
2023/09/02 04:33:00;;;;;;;2.50;2.20;;;11.90;99.90;;;;;;2064473;28;20345;-66
2023/09/02 04:34:01;;;;;;;3.47;2.37;;;11.90;99.90;;;;;;2063998;28;20222;-66
2023/09/02 04:35:02;;;;;;;3.30;2.20;;;11.90;99.90;;;;;;2063274;28;20305;-66
2023/09/02 04:36:03;;;;;;;2.58;2.38;;;11.80;99.90;;;;;;2053668;28;20219;-67
2023/09/02 04:37:04;;;;;;;4.63;2.53;;;11.90;99.90;;;;;;2062952;28;20190;-67
2023/09/02 04:38:05;;;;;;;3.40;2.20;;;11.90;99.90;;;;;;2062702;28;20268;-67
2023/09/02 04:39:06;;;;;;;2.60;2.22;;;11.90;99.90;;;;;;2055754;28;20203;-66
2023/09/02 04:40:09;;;;;;;2.97;2.17;;;11.90;99.90;;;;;;2053770;28;20190;-66
2023/09/02 04:41:10;;;;;;;2.35;2.15;;;11.90;99.90;;;;;;2059595;28;20455;-66
2023/09/02 04:42:11;;;;;;;2.83;2.30;;;11.90;99.90;;;;;;2066631;28;20201;-66
2023/09/02 04:43:13;;;;;;;3.33;2.20;;;11.90;99.90;;;;;;2063543;28;20297;-66
2023/09/02 04:44:17;;;;;;;4.03;2.55;;;11.90;99.90;;;;;;2062895;28;20553;-66
2023/09/02 04:45:18;;;;;;;2.53;2.30;;;11.90;99.90;;;;;;2062528;28;20285;-66
2023/09/02 04:46:19;;;;;;;2.80;2.23;;;11.90;99.90;;;;;;2063007;28;20194;-67
2023/09/02 04:47:20;;;;;;;2.40;1.90;;;11.90;99.90;;;;;;2046448;28;20195;-66
2023/09/02 04:48:21;;;;;;;2.83;2.30;;;11.80;99.90;;;;;;2045133;28;20207;-66
2023/09/02 04:49:22;;;;;;;2.72;2.33;;;11.80;99.90;;;;;;2055218;28;20334;-66
2023/09/02 04:50:23;;;;;;;2.87;2.30;;;11.80;99.90;;;;;;2054541;28;20313;-66
2023/09/02 04:51:23;;;;;;;4.13;2.50;;;11.80;99.90;;;;;;2050635;28;20817;-66
2023/09/02 04:52:24;;;;;;;2.43;2.13;;;11.80;99.90;;;;;;2063757;28;20285;-66
2023/09/02 04:53:25;;;;;;;3.23;2.60;;;11.80;99.90;;;;;;2073298;28;20299;-66
2023/09/02 04:54:26;;;;;;;2.70;2.50;;;11.80;99.90;;;;;;2065698;28;20230;-66
2023/09/02 04:55:27;;;;;;;4.17;3.20;;;11.80;99.90;;;;;;2072264;28;20229;-66
2023/09/02 04:56:28;;;;;;;5.45;2.58;;;11.80;99.90;;;;;;2066545;28;20229;-66
2023/09/02 04:57:32;;;;;;;2.93;2.53;;;11.80;99.90;;;;;;2072154;28;20660;-66
2023/09/02 04:58:33;;;;;;;2.95;2.65;;;11.80;99.90;;;;;;2071303;28;20232;-66
2023/09/02 04:59:34;;;;;;;4.33;2.40;;;11.80;99.90;;;;;;2063763;28;20703;-66
2023/09/02 05:00:35;;;;;;;3.07;2.53;;;11.90;99.90;;;;;;2059972;28;20229;-66
2023/09/02 05:01:36;;;;;;;3.50;2.60;;;11.80;99.90;;;;;;2055997;28;20285;-66
2023/09/02 05:02:36;;;;;;;2.93;2.63;;;11.90;99.90;;;;;;2062193;28;20234;-66
2023/09/02 05:03:37;;;;;;;3.57;2.90;;;11.90;99.90;;;;;;2063633;28;20225;-66
2023/09/02 05:04:38;;;;;;;5.63;5.13;;;11.90;99.90;;;;;;2062892;28;20615;-66
2023/09/02 05:05:40;;;;;;;4.80;4.40;;;12.00;99.90;;;;;;2062279;28;20222;-66
2023/09/02 05:06:41;;;;;;;4.53;3.92;;;12.00;99.90;;;;;;2062955;28;20601;-66
2023/09/02 05:07:41;;;;;;;4.63;3.57;;;12.00;99.90;;;;;;2058881;28;20238;-66
2023/09/02 05:08:42;;;;;;;3.90;3.40;;;12.00;99.90;;;;;;2050200;28;20293;-66
2023/09/02 05:09:43;;;;;;;4.20;3.20;;;12.00;99.90;;;;;;2062178;28;20218;-66
2023/09/02 05:10:44;;;;;;;3.30;2.90;;;12.00;99.90;;;;;;2057961;28;20218;-66
2023/09/02 05:11:44;;;;;;;3.67;2.87;;;12.00;99.90;;;;;;2057815;28;20269;-66
2023/09/02 05:12:45;;;;;;;4.10;3.10;;;12.00;99.90;;;;;;2063104;28;20229;-66
2023/09/02 05:13:48;;;;;;;3.70;3.10;;;12.10;99.90;;;;;;2061572;28;20773;-66
2023/09/02 05:14:48;;;;;;;3.72;2.75;;;12.10;99.90;;;;;;2054036;28;20239;-66
2023/09/02 05:15:52;;;;;;;2.87;2.57;;;12.10;99.90;;;;;;2046112;28;20226;-66
2023/09/02 05:16:53;;;;;;;3.75;2.47;;;12.10;99.90;;;;;;2053172;28;20237;-66
2023/09/02 05:17:58;;;;;;;3.33;2.80;;;12.20;99.90;;;;;;2065036;28;20736;-67
2023/09/02 05:18:58;;;;;;;2.80;2.60;;;12.20;99.90;;;;;;2062595;28;20223;-66
2023/09/02 05:20:00;;;;;;;3.33;2.53;;;12.20;99.90;;;;;;2063275;28;20724;-66
2023/09/02 05:21:01;;;;;;;3.17;2.83;;;12.20;99.90;;;;;;2062553;28;20716;-66
2023/09/02 05:22:03;;;;;;;3.13;2.60;;;12.20;99.90;;;;;;2061639;28;20225;-68
2023/09/02 05:23:03;;;;;;;2.70;2.42;;;12.10;99.90;;;;;;2065151;28;20194;-67